sensor_id;sensor_type;location;lat;lon;timestamp;P1;durP1;ratioP1;P2;durP2;ratioP2
47009;SDS011;59230;54.164;-3.124;2022-10-16T00:01:28;22.10;;;3.72;;
47009;SDS011;59230;54.164;-3.124;2022-10-16T00:03:57;22.08;;;3.00;;
47009;SDS011;59230;54.164;-3.124;2022-10-16T00:06:23;25.13;;;3.72;;
47009;SDS011;59230;54.164;-3.124;2022-10-16T00:08:51;17.60;;;3.10;;
47009;SDS011;59230;54.164;-3.124;2022-10-16T00:11:27;23.08;;;2.60;;
47009;SDS011;59230;54.164;-3.124;2022-10-16T00:14:09;32.40;;;3.33;;
47009;SDS011;59230;54.164;-3.124;2022-10-16T00:16:39;23.35;;;3.08;;
47009;SDS011;59230;54.164;-3.124;2022-10-16T00:19:06;22.73;;;3.33;;
47009;SDS011;59230;54.164;-3.124;2022-10-16T00:21:34;19.25;;;2.47;;
47009;SDS011;59230;54.164;-3.124;2022-10-16T00:24:05;14.48;;;1.90;;
47009;SDS011;59230;54.164;-3.124;2022-10-16T00:26:36;20.48;;;2.42;;
47009;SDS011;59230;54.164;-3.124;2022-10-16T00:29:03;14.10;;;2.47;;
47009;SDS011;59230;54.164;-3.124;2022-10-16T00:31:29;21.00;;;2.60;;
47009;SDS011;59230;54.164;-3.124;2022-10-16T00:33:56;24.15;;;2.30;;
47009;SDS011;59230;54.164;-3.124;2022-10-16T00:36:23;14.15;;;2.13;;
47009;SDS011;59230;54.164;-3.124;2022-10-16T00:38:50;9.63;;;1.90;;
47009;SDS011;59230;54.164;-3.124;2022-10-16T00:41:23;15.35;;;1.90;;
47009;SDS011;59230;54.164;-3.124;2022-10-16T00:43:59;15.77;;;2.13;;
47009;SDS011;59230;54.164;-3.124;2022-10-16T00:46:28;18.15;;;2.47;;
47009;SDS011;59230;54.164;-3.124;2022-10-16T00:49:05;17.65;;;2.40;;
47009;SDS011;59230;54.164;-3.124;2022-10-16T00:51:43;24.80;;;2.65;;
47009;SDS011;59230;54.164;-3.124;2022-10-16T00:54:15;19.90;;;2.17;;
47009;SDS011;59230;54.164;-3.124;2022-10-16T00:56:50;23.30;;;3.75;;
47009;SDS011;59230;54.164;-3.124;2022-10-16T00:59:36;16.38;;;2.35;;
47009;SDS011;59230;54.164;-3.124;2022-10-16T01:02:06;12.75;;;2.30;;
47009;SDS011;59230;54.164;-3.124;2022-10-16T01:04:51;13.43;;;2.08;;
47009;SDS011;59230;54.164;-3.124;2022-10-16T01:07:26;15.98;;;2.60;;
47009;SDS011;59230;54.164;-3.124;2022-10-16T01:15:42;13.93;;;1.85;;
47009;SDS011;59230;54.164;-3.124;2022-10-16T01:18:39;15.07;;;2.03;;
47009;SDS011;59230;54.164;-3.124;2022-10-16T01:21:34;8.80;;;1.77;;
47009;SDS011;59230;54.164;-3.124;2022-10-16T01:32:46;9.73;;;1.63;;
47009;SDS011;59230;54.164;-3.124;2022-10-16T01:35:32;7.97;;;1.30;;
47009;SDS011;59230;54.164;-3.124;2022-10-16T01:40:50;15.13;;;1.70;;
47009;SDS011;59230;54.164;-3.124;2022-10-16T01:43:27;13.52;;;1.95;;
47009;SDS011;59230;54.164;-3.124;2022-10-16T01:46:05;12.77;;;1.95;;
47009;SDS011;59230;54.164;-3.124;2022-10-16T01:48:31;8.40;;;1.60;;
47009;SDS011;59230;54.164;-3.124;2022-10-16T01:51:03;12.50;;;1.65;;
47009;SDS011;59230;54.164;-3.124;2022-10-16T01:53:35;11.52;;;2.08;;
47009;SDS011;59230;54.164;-3.124;2022-10-16T01:56:02;14.65;;;1.65;;
47009;SDS011;59230;54.164;-3.124;2022-10-16T01:58:31;13.40;;;2.08;;
47009;SDS011;59230;54.164;-3.124;2022-10-16T02:01:01;16.52;;;2.35;;
47009;SDS011;59230;54.164;-3.124;2022-10-16T02:03:28;15.40;;;1.67;;
47009;SDS011;59230;54.164;-3.124;2022-10-16T02:05:55;15.35;;;2.17;;
47009;SDS011;59230;54.164;-3.124;2022-10-16T02:08:24;8.57;;;1.50;;
47009;SDS011;59230;54.164;-3.124;2022-10-16T02:10:54;12.48;;;2.72;;
47009;SDS011;59230;54.164;-3.124;2022-10-16T02:13:35;10.48;;;1.55;;
47009;SDS011;59230;54.164;-3.124;2022-10-16T02:16:12;9.90;;;1.67;;
47009;SDS011;59230;54.164;-3.124;2022-10-16T02:18:39;14.00;;;1.70;;
47009;SDS011;59230;54.164;-3.124;2022-10-16T02:21:25;19.05;;;2.15;;
47009;SDS011;59230;54.164;-3.124;2022-10-16T02:24:19;14.35;;;1.92;;
47009;SDS011;59230;54.164;-3.124;2022-10-16T02:27:00;16.60;;;1.88;;
47009;SDS011;59230;54.164;-3.124;2022-10-16T02:29:31;14.63;;;1.85;;
47009;SDS011;59230;54.164;-3.124;2022-10-16T02:31:59;9.95;;;2.05;;
47009;SDS011;59230;54.164;-3.124;2022-10-16T02:34:28;16.67;;;2.50;;
47009;SDS011;59230;54.164;-3.124;2022-10-16T02:36:58;12.93;;;2.25;;
47009;SDS011;59230;54.164;-3.124;2022-10-16T02:39:27;15.70;;;1.92;;
47009;SDS011;59230;54.164;-3.124;2022-10-16T02:41:56;15.18;;;1.90;;
47009;SDS011;59230;54.164;-3.124;2022-10-16T02:44:22;11.02;;;1.75;;
47009;SDS011;59230;54.164;-3.124;2022-10-16T02:46:48;16.65;;;2.00;;
47009;SDS011;59230;54.164;-3.124;2022-10-16T02:49:15;9.45;;;1.88;;
47009;SDS011;59230;54.164;-3.124;2022-10-16T02:51:41;15.50;;;2.47;;
47009;SDS011;59230;54.164;-3.124;2022-10-16T02:54:11;10.57;;;1.70;;
47009;SDS011;59230;54.164;-3.124;2022-10-16T02:56:38;11.65;;;1.92;;
47009;SDS011;59230;54.164;-3.124;2022-10-16T02:59:06;11.70;;;1.85;;
47009;SDS011;59230;54.164;-3.124;2022-10-16T03:01:32;12.25;;;2.00;;
47009;SDS011;59230;54.164;-3.124;2022-10-16T03:03:59;18.45;;;2.13;;
47009;SDS011;59230;54.164;-3.124;2022-10-16T03:06:24;10.32;;;1.95;;
47009;SDS011;59230;54.164;-3.124;2022-10-16T03:08:50;9.27;;;1.75;;
47009;SDS011;59230;54.164;-3.124;2022-10-16T03:11:15;24.05;;;2.05;;
47009;SDS011;59230;54.164;-3.124;2022-10-16T03:13:41;12.18;;;1.80;;
47009;SDS011;59230;54.164;-3.124;2022-10-16T03:16:09;10.10;;;1.70;;
47009;SDS011;59230;54.164;-3.124;2022-10-16T03:18:37;17.77;;;2.58;;
47009;SDS011;59230;54.164;-3.124;2022-10-16T03:21:07;11.63;;;1.80;;
47009;SDS011;59230;54.164;-3.124;2022-10-16T03:23:32;16.20;;;1.90;;
47009;SDS011;59230;54.164;-3.124;2022-10-16T03:25:59;18.88;;;2.35;;
47009;SDS011;59230;54.164;-3.124;2022-10-16T03:28:24;20.02;;;1.92;;
47009;SDS011;59230;54.164;-3.124;2022-10-16T03:30:52;14.60;;;2.25;;
47009;SDS011;59230;54.164;-3.124;2022-10-16T03:33:18;18.25;;;1.63;;
47009;SDS011;59230;54.164;-3.124;2022-10-16T03:35:50;15.20;;;1.92;;
47009;SDS011;59230;54.164;-3.124;2022-10-16T03:38:20;12.27;;;1.50;;
47009;SDS011;59230;54.164;-3.124;2022-10-16T03:40:48;21.02;;;3.25;;
47009;SDS011;59230;54.164;-3.124;2022-10-16T03:43:15;13.48;;;1.92;;
47009;SDS011;59230;54.164;-3.124;2022-10-16T03:45:42;15.27;;;2.13;;
47009;SDS011;59230;54.164;-3.124;2022-10-16T03:48:07;19.05;;;2.40;;
47009;SDS011;59230;54.164;-3.124;2022-10-16T03:50:34;13.63;;;2.05;;
47009;SDS011;59230;54.164;-3.124;2022-10-16T03:52:59;13.02;;;1.95;;
47009;SDS011;59230;54.164;-3.124;2022-10-16T03:55:25;13.02;;;1.60;;
47009;SDS011;59230;54.164;-3.124;2022-10-16T03:57:52;14.02;;;1.83;;
47009;SDS011;59230;54.164;-3.124;2022-10-16T04:00:20;22.67;;;2.08;;
47009;SDS011;59230;54.164;-3.124;2022-10-16T04:02:46;8.73;;;1.70;;
47009;SDS011;59230;54.164;-3.124;2022-10-16T04:05:14;12.02;;;2.20;;
47009;SDS011;59230;54.164;-3.124;2022-10-16T04:07:42;18.10;;;1.92;;
47009;SDS011;59230;54.164;-3.124;2022-10-16T04:10:07;11.32;;;1.80;;
47009;SDS011;59230;54.164;-3.124;2022-10-16T04:12:33;11.48;;;1.90;;
47009;SDS011;59230;54.164;-3.124;2022-10-16T04:14:59;20.02;;;2.15;;
47009;SDS011;59230;54.164;-3.124;2022-10-16T04:17:24;18.92;;;1.95;;
47009;SDS011;59230;54.164;-3.124;2022-10-16T04:19:50;15.40;;;3.15;;
47009;SDS011;59230;54.164;-3.124;2022-10-16T04:22:15;15.35;;;2.15;;
47009;SDS011;59230;54.164;-3.124;2022-10-16T04:24:43;18.33;;;2.58;;
47009;SDS011;59230;54.164;-3.124;2022-10-16T04:27:10;12.90;;;2.08;;
47009;SDS011;59230;54.164;-3.124;2022-10-16T04:29:36;18.73;;;2.20;;
47009;SDS011;59230;54.164;-3.124;2022-10-16T04:32:03;17.40;;;2.03;;
47009;SDS011;59230;54.164;-3.124;2022-10-16T04:34:30;14.68;;;2.50;;
47009;SDS011;59230;54.164;-3.124;2022-10-16T04:36:57;23.45;;;2.38;;
47009;SDS011;59230;54.164;-3.124;2022-10-16T04:39:23;15.63;;;1.95;;
47009;SDS011;59230;54.164;-3.124;2022-10-16T04:41:50;11.68;;;1.63;;
47009;SDS011;59230;54.164;-3.124;2022-10-16T04:44:16;16.67;;;2.10;;
47009;SDS011;59230;54.164;-3.124;2022-10-16T04:46:44;12.60;;;1.80;;
47009;SDS011;59230;54.164;-3.124;2022-10-16T04:49:10;12.10;;;2.22;;
47009;SDS011;59230;54.164;-3.124;2022-10-16T04:51:39;14.38;;;2.03;;
47009;SDS011;59230;54.164;-3.124;2022-10-16T04:54:08;21.58;;;2.60;;
47009;SDS011;59230;54.164;-3.124;2022-10-16T04:56:34;13.65;;;2.35;;
47009;SDS011;59230;54.164;-3.124;2022-10-16T04:59:09;20.20;;;2.25;;
47009;SDS011;59230;54.164;-3.124;2022-10-16T05:01:38;12.20;;;2.33;;
47009;SDS011;59230;54.164;-3.124;2022-10-16T05:04:03;18.88;;;2.30;;
47009;SDS011;59230;54.164;-3.124;2022-10-16T05:06:29;25.05;;;2.95;;
47009;SDS011;59230;54.164;-3.124;2022-10-16T05:09:00;16.75;;;1.80;;
47009;SDS011;59230;54.164;-3.124;2022-10-16T05:11:28;13.15;;;2.78;;
47009;SDS011;59230;54.164;-3.124;2022-10-16T05:13:55;20.30;;;2.45;;
47009;SDS011;59230;54.164;-3.124;2022-10-16T05:16:22;17.83;;;2.80;;
47009;SDS011;59230;54.164;-3.124;2022-10-16T05:18:50;14.80;;;2.03;;
47009;SDS011;59230;54.164;-3.124;2022-10-16T05:21:21;17.30;;;2.70;;
47009;SDS011;59230;54.164;-3.124;2022-10-16T05:23:47;20.05;;;2.30;;
47009;SDS011;59230;54.164;-3.124;2022-10-16T05:26:13;17.40;;;2.10;;
47009;SDS011;59230;54.164;-3.124;2022-10-16T05:28:39;13.80;;;2.15;;
47009;SDS011;59230;54.164;-3.124;2022-10-16T05:31:09;15.43;;;2.38;;
47009;SDS011;59230;54.164;-3.124;2022-10-16T05:33:37;18.92;;;2.28;;
47009;SDS011;59230;54.164;-3.124;2022-10-16T05:36:03;22.35;;;2.90;;
47009;SDS011;59230;54.164;-3.124;2022-10-16T05:38:34;18.85;;;2.30;;
47009;SDS011;59230;54.164;-3.124;2022-10-16T05:41:03;19.05;;;2.83;;
47009;SDS011;59230;54.164;-3.124;2022-10-16T05:43:31;19.33;;;2.40;;
47009;SDS011;59230;54.164;-3.124;2022-10-16T05:46:03;15.93;;;2.08;;
47009;SDS011;59230;54.164;-3.124;2022-10-16T05:48:31;20.52;;;2.28;;
47009;SDS011;59230;54.164;-3.124;2022-10-16T05:51:05;17.88;;;2.45;;
47009;SDS011;59230;54.164;-3.124;2022-10-16T05:53:32;15.48;;;2.72;;
47009;SDS011;59230;54.164;-3.124;2022-10-16T05:56:03;13.60;;;2.33;;
47009;SDS011;59230;54.164;-3.124;2022-10-16T05:58:33;22.20;;;2.25;;
47009;SDS011;59230;54.164;-3.124;2022-10-16T06:01:06;24.17;;;2.55;;
47009;SDS011;59230;54.164;-3.124;2022-10-16T06:03:37;16.13;;;2.53;;
47009;SDS011;59230;54.164;-3.124;2022-10-16T06:06:19;17.38;;;2.40;;
47009;SDS011;59230;54.164;-3.124;2022-10-16T06:08:47;21.00;;;2.53;;
47009;SDS011;59230;54.164;-3.124;2022-10-16T06:11:19;25.23;;;2.70;;
47009;SDS011;59230;54.164;-3.124;2022-10-16T06:13:51;21.20;;;2.65;;
47009;SDS011;59230;54.164;-3.124;2022-10-16T06:16:24;19.77;;;2.63;;
47009;SDS011;59230;54.164;-3.124;2022-10-16T06:18:52;18.20;;;2.38;;
47009;SDS011;59230;54.164;-3.124;2022-10-16T06:21:25;17.98;;;2.97;;
47009;SDS011;59230;54.164;-3.124;2022-10-16T06:23:54;13.60;;;2.50;;
47009;SDS011;59230;54.164;-3.124;2022-10-16T06:26:25;17.23;;;2.70;;
47009;SDS011;59230;54.164;-3.124;2022-10-16T06:28:56;19.10;;;3.03;;
47009;SDS011;59230;54.164;-3.124;2022-10-16T06:31:25;26.95;;;2.33;;
47009;SDS011;59230;54.164;-3.124;2022-10-16T06:33:56;20.60;;;2.13;;
47009;SDS011;59230;54.164;-3.124;2022-10-16T06:36:23;17.58;;;2.45;;
47009;SDS011;59230;54.164;-3.124;2022-10-16T06:38:51;16.83;;;2.20;;
47009;SDS011;59230;54.164;-3.124;2022-10-16T06:41:17;26.48;;;2.75;;
47009;SDS011;59230;54.164;-3.124;2022-10-16T06:43:45;22.45;;;3.10;;
47009;SDS011;59230;54.164;-3.124;2022-10-16T06:46:14;20.90;;;2.90;;
47009;SDS011;59230;54.164;-3.124;2022-10-16T06:48:43;19.52;;;2.67;;
47009;SDS011;59230;54.164;-3.124;2022-10-16T06:51:13;19.05;;;3.28;;
47009;SDS011;59230;54.164;-3.124;2022-10-16T06:53:46;20.17;;;2.25;;
47009;SDS011;59230;54.164;-3.124;2022-10-16T06:58:50;19.25;;;2.25;;
47009;SDS011;59230;54.164;-3.124;2022-10-16T07:01:22;22.55;;;3.15;;
47009;SDS011;59230;54.164;-3.124;2022-10-16T07:03:48;20.77;;;2.72;;
47009;SDS011;59230;54.164;-3.124;2022-10-16T07:06:19;13.00;;;2.00;;
47009;SDS011;59230;54.164;-3.124;2022-10-16T07:08:49;22.45;;;2.80;;
47009;SDS011;59230;54.164;-3.124;2022-10-16T07:11:19;25.85;;;2.72;;
47009;SDS011;59230;54.164;-3.124;2022-10-16T07:13:48;23.35;;;3.92;;
47009;SDS011;59230;54.164;-3.124;2022-10-16T07:16:15;23.20;;;2.90;;
47009;SDS011;59230;54.164;-3.124;2022-10-16T07:18:45;20.13;;;2.78;;
47009;SDS011;59230;54.164;-3.124;2022-10-16T07:21:18;18.48;;;2.67;;
47009;SDS011;59230;54.164;-3.124;2022-10-16T07:23:49;23.13;;;2.22;;
47009;SDS011;59230;54.164;-3.124;2022-10-16T07:26:17;18.88;;;2.53;;
47009;SDS011;59230;54.164;-3.124;2022-10-16T07:28:44;16.23;;;2.85;;
47009;SDS011;59230;54.164;-3.124;2022-10-16T07:31:11;16.23;;;2.42;;
47009;SDS011;59230;54.164;-3.124;2022-10-16T07:33:40;13.70;;;1.60;;
47009;SDS011;59230;54.164;-3.124;2022-10-16T07:36:11;22.90;;;2.53;;
47009;SDS011;59230;54.164;-3.124;2022-10-16T07:38:38;15.50;;;2.33;;
47009;SDS011;59230;54.164;-3.124;2022-10-16T07:41:05;15.30;;;2.55;;
47009;SDS011;59230;54.164;-3.124;2022-10-16T07:43:35;30.52;;;3.28;;
47009;SDS011;59230;54.164;-3.124;2022-10-16T07:46:06;10.98;;;2.30;;
47009;SDS011;59230;54.164;-3.124;2022-10-16T07:48:35;17.58;;;2.72;;
47009;SDS011;59230;54.164;-3.124;2022-10-16T07:51:05;25.42;;;3.15;;
47009;SDS011;59230;54.164;-3.124;2022-10-16T07:53:32;22.65;;;2.35;;
47009;SDS011;59230;54.164;-3.124;2022-10-16T07:56:03;18.10;;;2.85;;
47009;SDS011;59230;54.164;-3.124;2022-10-16T07:58:30;18.80;;;2.85;;
47009;SDS011;59230;54.164;-3.124;2022-10-16T08:00:58;31.67;;;2.75;;
47009;SDS011;59230;54.164;-3.124;2022-10-16T08:03:25;20.85;;;2.33;;
47009;SDS011;59230;54.164;-3.124;2022-10-16T08:05:56;22.55;;;3.13;;
47009;SDS011;59230;54.164;-3.124;2022-10-16T08:08:22;19.10;;;3.20;;
47009;SDS011;59230;54.164;-3.124;2022-10-16T08:10:47;23.35;;;3.00;;
47009;SDS011;59230;54.164;-3.124;2022-10-16T08:13:15;26.48;;;3.70;;
47009;SDS011;59230;54.164;-3.124;2022-10-16T08:15:43;28.83;;;2.60;;
47009;SDS011;59230;54.164;-3.124;2022-10-16T08:18:11;22.00;;;2.70;;
47009;SDS011;59230;54.164;-3.124;2022-10-16T08:20:42;18.45;;;2.60;;
47009;SDS011;59230;54.164;-3.124;2022-10-16T08:23:11;27.30;;;2.67;;
47009;SDS011;59230;54.164;-3.124;2022-10-16T08:25:40;23.83;;;2.47;;
47009;SDS011;59230;54.164;-3.124;2022-10-16T08:28:09;19.95;;;3.17;;
47009;SDS011;59230;54.164;-3.124;2022-10-16T08:30:40;19.30;;;2.72;;
47009;SDS011;59230;54.164;-3.124;2022-10-16T08:33:07;17.35;;;2.22;;
47009;SDS011;59230;54.164;-3.124;2022-10-16T08:35:35;23.40;;;2.78;;
47009;SDS011;59230;54.164;-3.124;2022-10-16T08:38:03;25.13;;;2.72;;
47009;SDS011;59230;54.164;-3.124;2022-10-16T08:40:30;17.98;;;2.70;;
47009;SDS011;59230;54.164;-3.124;2022-10-16T08:43:06;15.52;;;2.20;;
47009;SDS011;59230;54.164;-3.124;2022-10-16T08:48:45;16.05;;;1.98;;
47009;SDS011;59230;54.164;-3.124;2022-10-16T08:51:16;18.35;;;2.60;;
47009;SDS011;59230;54.164;-3.124;2022-10-16T08:56:21;13.45;;;2.28;;
47009;SDS011;59230;54.164;-3.124;2022-10-16T08:58:48;17.02;;;2.60;;
47009;SDS011;59230;54.164;-3.124;2022-10-16T09:01:17;26.85;;;2.08;;
47009;SDS011;59230;54.164;-3.124;2022-10-16T09:03:51;17.48;;;2.35;;
47009;SDS011;59230;54.164;-3.124;2022-10-16T09:39:03;13.38;;;1.88;;
47009;SDS011;59230;54.164;-3.124;2022-10-16T09:41:44;16.52;;;2.65;;
47009;SDS011;59230;54.164;-3.124;2022-10-16T09:44:32;24.38;;;2.28;;
47009;SDS011;59230;54.164;-3.124;2022-10-16T09:47:24;16.63;;;3.00;;
47009;SDS011;59230;54.164;-3.124;2022-10-16T09:59:14;12.35;;;2.20;;
47009;SDS011;59230;54.164;-3.124;2022-10-16T10:01:54;15.65;;;2.35;;
47009;SDS011;59230;54.164;-3.124;2022-10-16T10:04:50;21.17;;;2.83;;
47009;SDS011;59230;54.164;-3.124;2022-10-16T10:07:21;18.73;;;2.65;;
47009;SDS011;59230;54.164;-3.124;2022-10-16T10:09:53;15.63;;;2.30;;
47009;SDS011;59230;54.164;-3.124;2022-10-16T10:12:26;10.82;;;2.50;;
47009;SDS011;59230;54.164;-3.124;2022-10-16T10:14:53;13.70;;;1.98;;
47009;SDS011;59230;54.164;-3.124;2022-10-16T10:20:34;12.88;;;1.63;;
47009;SDS011;59230;54.164;-3.124;2022-10-16T10:26:30;16.30;;;2.20;;
47009;SDS011;59230;54.164;-3.124;2022-10-16T10:39:31;12.55;;;1.80;;
47009;SDS011;59230;54.164;-3.124;2022-10-16T10:42:33;16.10;;;2.03;;
47009;SDS011;59230;54.164;-3.124;2022-10-16T10:51:27;16.58;;;2.10;;
47009;SDS011;59230;54.164;-3.124;2022-10-16T11:26:50;15.93;;;1.98;;
47009;SDS011;59230;54.164;-3.124;2022-10-16T11:29:19;15.93;;;1.80;;
47009;SDS011;59230;54.164;-3.124;2022-10-16T11:31:53;22.67;;;2.22;;
47009;SDS011;59230;54.164;-3.124;2022-10-16T11:35:08;24.40;;;2.33;;
47009;SDS011;59230;54.164;-3.124;2022-10-16T11:37:27;17.00;;;2.10;;
47009;SDS011;59230;54.164;-3.124;2022-10-16T11:39:59;18.48;;;2.97;;
47009;SDS011;59230;54.164;-3.124;2022-10-16T11:42:44;15.02;;;1.83;;
47009;SDS011;59230;54.164;-3.124;2022-10-16T11:48:15;16.15;;;2.28;;
47009;SDS011;59230;54.164;-3.124;2022-10-16T11:55:55;18.35;;;2.03;;
47009;SDS011;59230;54.164;-3.124;2022-10-16T12:10:31;13.15;;;1.63;;
47009;SDS011;59230;54.164;-3.124;2022-10-16T12:13:25;12.00;;;1.52;;
47009;SDS011;59230;54.164;-3.124;2022-10-16T12:16:05;15.45;;;1.92;;
47009;SDS011;59230;54.164;-3.124;2022-10-16T12:18:44;11.40;;;2.22;;
47009;SDS011;59230;54.164;-3.124;2022-10-16T12:21:15;10.32;;;1.60;;
47009;SDS011;59230;54.164;-3.124;2022-10-16T12:23:51;10.50;;;1.38;;
47009;SDS011;59230;54.164;-3.124;2022-10-16T12:26:25;11.57;;;1.48;;
47009;SDS011;59230;54.164;-3.124;2022-10-16T12:28:53;12.05;;;1.40;;
47009;SDS011;59230;54.164;-3.124;2022-10-16T12:31:21;10.95;;;1.70;;
47009;SDS011;59230;54.164;-3.124;2022-10-16T12:36:30;13.05;;;1.77;;
47009;SDS011;59230;54.164;-3.124;2022-10-16T12:39:02;20.05;;;2.50;;
47009;SDS011;59230;54.164;-3.124;2022-10-16T12:41:29;11.73;;;1.80;;
47009;SDS011;59230;54.164;-3.124;2022-10-16T12:43:57;13.45;;;2.65;;
47009;SDS011;59230;54.164;-3.124;2022-10-16T12:51:42;9.02;;;1.38;;
47009;SDS011;59230;54.164;-3.124;2022-10-16T12:54:17;8.52;;;1.55;;
47009;SDS011;59230;54.164;-3.124;2022-10-16T12:57:05;10.43;;;1.65;;
47009;SDS011;59230;54.164;-3.124;2022-10-16T13:11:05;12.68;;;2.72;;
47009;SDS011;59230;54.164;-3.124;2022-10-16T13:27:47;9.38;;;1.30;;
47009;SDS011;59230;54.164;-3.124;2022-10-16T13:30:40;13.15;;;1.65;;
47009;SDS011;59230;54.164;-3.124;2022-10-16T13:33:13;9.00;;;1.70;;
47009;SDS011;59230;54.164;-3.124;2022-10-16T13:38:18;10.05;;;1.58;;
47009;SDS011;59230;54.164;-3.124;2022-10-16T13:40:57;17.23;;;1.98;;
47009;SDS011;59230;54.164;-3.124;2022-10-16T13:43:33;12.32;;;1.95;;
47009;SDS011;59230;54.164;-3.124;2022-10-16T13:46:10;10.48;;;1.60;;
47009;SDS011;59230;54.164;-3.124;2022-10-16T13:48:41;13.35;;;1.65;;
47009;SDS011;59230;54.164;-3.124;2022-10-16T13:51:24;8.75;;;1.40;;
47009;SDS011;59230;54.164;-3.124;2022-10-16T13:53:50;12.52;;;1.75;;
47009;SDS011;59230;54.164;-3.124;2022-10-16T13:56:21;11.48;;;1.77;;
47009;SDS011;59230;54.164;-3.124;2022-10-16T13:59:03;12.50;;;1.73;;
47009;SDS011;59230;54.164;-3.124;2022-10-16T14:01:31;11.18;;;1.40;;
47009;SDS011;59230;54.164;-3.124;2022-10-16T14:04:11;9.57;;;1.70;;
47009;SDS011;59230;54.164;-3.124;2022-10-16T14:06:49;14.90;;;1.50;;
47009;SDS011;59230;54.164;-3.124;2022-10-16T14:11:55;11.27;;;2.20;;
47009;SDS011;59230;54.164;-3.124;2022-10-16T14:14:42;8.05;;;2.40;;
47009;SDS011;59230;54.164;-3.124;2022-10-16T14:17:27;21.40;;;8.60;;
47009;SDS011;59230;54.164;-3.124;2022-10-16T14:19:58;16.30;;;3.67;;
47009;SDS011;59230;54.164;-3.124;2022-10-16T14:25:00;8.48;;;2.53;;
47009;SDS011;59230;54.164;-3.124;2022-10-16T14:27:31;16.48;;;1.67;;
47009;SDS011;59230;54.164;-3.124;2022-10-16T14:32:53;12.02;;;1.27;;
47009;SDS011;59230;54.164;-3.124;2022-10-16T14:35:40;10.27;;;1.70;;
47009;SDS011;59230;54.164;-3.124;2022-10-16T14:38:06;31.67;;;10.68;;
47009;SDS011;59230;54.164;-3.124;2022-10-16T14:40:47;10.27;;;2.05;;
47009;SDS011;59230;54.164;-3.124;2022-10-16T14:43:22;16.73;;;2.30;;
47009;SDS011;59230;54.164;-3.124;2022-10-16T14:48:28;9.15;;;2.20;;
47009;SDS011;59230;54.164;-3.124;2022-10-16T14:50:53;10.48;;;2.00;;
47009;SDS011;59230;54.164;-3.124;2022-10-16T14:53:21;8.50;;;1.63;;
47009;SDS011;59230;54.164;-3.124;2022-10-16T14:55:47;11.45;;;1.60;;
47009;SDS011;59230;54.164;-3.124;2022-10-16T14:58:22;6.15;;;1.60;;
47009;SDS011;59230;54.164;-3.124;2022-10-16T15:00:49;16.08;;;1.80;;
47009;SDS011;59230;54.164;-3.124;2022-10-16T15:03:16;10.60;;;1.90;;
47009;SDS011;59230;54.164;-3.124;2022-10-16T15:05:43;6.63;;;1.30;;
47009;SDS011;59230;54.164;-3.124;2022-10-16T15:08:08;8.15;;;1.23;;
47009;SDS011;59230;54.164;-3.124;2022-10-16T15:10:37;12.07;;;1.55;;
47009;SDS011;59230;54.164;-3.124;2022-10-16T15:13:08;8.10;;;1.02;;
47009;SDS011;59230;54.164;-3.124;2022-10-16T15:15:37;12.32;;;1.65;;
47009;SDS011;59230;54.164;-3.124;2022-10-16T15:18:07;6.53;;;2.47;;
47009;SDS011;59230;54.164;-3.124;2022-10-16T15:20:36;14.52;;;6.63;;
47009;SDS011;59230;54.164;-3.124;2022-10-16T15:23:16;13.02;;;5.97;;
47009;SDS011;59230;54.164;-3.124;2022-10-16T15:25:55;5.47;;;1.58;;
47009;SDS011;59230;54.164;-3.124;2022-10-16T15:28:25;9.52;;;1.33;;
47009;SDS011;59230;54.164;-3.124;2022-10-16T15:30:52;11.55;;;2.75;;
47009;SDS011;59230;54.164;-3.124;2022-10-16T15:33:24;18.73;;;7.40;;
47009;SDS011;59230;54.164;-3.124;2022-10-16T15:35:59;20.23;;;7.65;;
47009;SDS011;59230;54.164;-3.124;2022-10-16T15:38:25;89.13;;;36.37;;
47009;SDS011;59230;54.164;-3.124;2022-10-16T15:40:51;123.00;;;56.45;;
47009;SDS011;59230;54.164;-3.124;2022-10-16T15:43:19;134.35;;;61.28;;
47009;SDS011;59230;54.164;-3.124;2022-10-16T15:46:11;115.30;;;51.72;;
47009;SDS011;59230;54.164;-3.124;2022-10-16T15:48:36;55.08;;;23.92;;
47009;SDS011;59230;54.164;-3.124;2022-10-16T15:51:04;26.23;;;8.98;;
47009;SDS011;59230;54.164;-3.124;2022-10-16T15:53:33;27.92;;;10.88;;
47009;SDS011;59230;54.164;-3.124;2022-10-16T15:56:03;28.35;;;8.18;;
47009;SDS011;59230;54.164;-3.124;2022-10-16T15:58:32;16.92;;;4.55;;
47009;SDS011;59230;54.164;-3.124;2022-10-16T16:00:59;29.17;;;10.57;;
47009;SDS011;59230;54.164;-3.124;2022-10-16T16:03:26;15.65;;;6.07;;
47009;SDS011;59230;54.164;-3.124;2022-10-16T16:05:55;14.98;;;4.25;;
47009;SDS011;59230;54.164;-3.124;2022-10-16T16:08:21;12.65;;;4.05;;
47009;SDS011;59230;54.164;-3.124;2022-10-16T16:11:08;19.98;;;10.07;;
47009;SDS011;59230;54.164;-3.124;2022-10-16T16:13:37;24.65;;;11.48;;
47009;SDS011;59230;54.164;-3.124;2022-10-16T16:16:07;39.17;;;18.33;;
47009;SDS011;59230;54.164;-3.124;2022-10-16T16:18:37;19.13;;;9.00;;
47009;SDS011;59230;54.164;-3.124;2022-10-16T16:21:03;31.45;;;13.32;;
47009;SDS011;59230;54.164;-3.124;2022-10-16T16:23:31;34.92;;;15.43;;
47009;SDS011;59230;54.164;-3.124;2022-10-16T16:28:39;21.55;;;6.47;;
47009;SDS011;59230;54.164;-3.124;2022-10-16T16:31:07;18.13;;;6.25;;
47009;SDS011;59230;54.164;-3.124;2022-10-16T16:33:34;19.85;;;5.90;;
47009;SDS011;59230;54.164;-3.124;2022-10-16T16:36:00;94.00;;;39.47;;
47009;SDS011;59230;54.164;-3.124;2022-10-16T16:38:31;86.20;;;33.25;;
47009;SDS011;59230;54.164;-3.124;2022-10-16T16:40:57;70.20;;;28.33;;
47009;SDS011;59230;54.164;-3.124;2022-10-16T16:43:26;35.95;;;12.05;;
47009;SDS011;59230;54.164;-3.124;2022-10-16T16:45:54;35.22;;;13.07;;
47009;SDS011;59230;54.164;-3.124;2022-10-16T16:48:23;15.45;;;4.65;;
47009;SDS011;59230;54.164;-3.124;2022-10-16T16:50:48;12.93;;;2.55;;
47009;SDS011;59230;54.164;-3.124;2022-10-16T16:53:14;52.22;;;24.75;;
47009;SDS011;59230;54.164;-3.124;2022-10-16T16:55:40;21.30;;;5.93;;
47009;SDS011;59230;54.164;-3.124;2022-10-16T16:58:07;19.05;;;3.33;;
47009;SDS011;59230;54.164;-3.124;2022-10-16T17:00:33;34.00;;;8.30;;
47009;SDS011;59230;54.164;-3.124;2022-10-16T17:02:58;35.03;;;12.52;;
47009;SDS011;59230;54.164;-3.124;2022-10-16T17:05:25;32.78;;;11.25;;
47009;SDS011;59230;54.164;-3.124;2022-10-16T17:07:52;23.77;;;8.10;;
47009;SDS011;59230;54.164;-3.124;2022-10-16T17:10:19;43.42;;;13.52;;
47009;SDS011;59230;54.164;-3.124;2022-10-16T17:12:44;277.85;;;82.57;;
47009;SDS011;59230;54.164;-3.124;2022-10-16T17:15:13;130.77;;;40.83;;
47009;SDS011;59230;54.164;-3.124;2022-10-16T17:17:40;61.60;;;21.23;;
47009;SDS011;59230;54.164;-3.124;2022-10-16T17:20:07;46.05;;;19.48;;
47009;SDS011;59230;54.164;-3.124;2022-10-16T17:22:35;18.23;;;7.10;;
47009;SDS011;59230;54.164;-3.124;2022-10-16T17:25:05;19.73;;;5.93;;
47009;SDS011;59230;54.164;-3.124;2022-10-16T17:27:32;16.20;;;4.70;;
47009;SDS011;59230;54.164;-3.124;2022-10-16T17:30:03;16.70;;;5.30;;
47009;SDS011;59230;54.164;-3.124;2022-10-16T17:32:34;20.63;;;3.83;;
47009;SDS011;59230;54.164;-3.124;2022-10-16T17:35:03;25.58;;;9.15;;
47009;SDS011;59230;54.164;-3.124;2022-10-16T17:37:29;14.63;;;3.40;;
47009;SDS011;59230;54.164;-3.124;2022-10-16T17:39:55;69.07;;;27.60;;
47009;SDS011;59230;54.164;-3.124;2022-10-16T17:42:20;39.33;;;11.23;;
47009;SDS011;59230;54.164;-3.124;2022-10-16T17:44:45;21.70;;;6.20;;
47009;SDS011;59230;54.164;-3.124;2022-10-16T17:47:11;37.72;;;12.38;;
47009;SDS011;59230;54.164;-3.124;2022-10-16T17:49:39;25.02;;;6.63;;
47009;SDS011;59230;54.164;-3.124;2022-10-16T17:52:08;21.88;;;4.55;;
47009;SDS011;59230;54.164;-3.124;2022-10-16T17:54:35;10.48;;;3.50;;